Time;durP1;ratioP1;P1;durP2;ratioP2;P2;SDS_P1;SDS_P2;PMS_P1;PMS_P2;Temp;Humidity;BMP_temperature;BMP_pressure;BME280_temperature;BME280_humidity;BME280_pressure;Samples;Min_cycle;Max_cycle;Signal;HPM_P1;HPM_P2
2021/11/20 00:02:08;;;;;;;29.10;16.07;;;;;;;;;;5043081;28;20502;-62
2021/11/20 00:04:35;;;;;;;29.50;16.27;;;;;;;;;;5034149;28;20406;-63
2021/11/20 00:07:03;;;;;;;29.97;15.73;;;;;;;;;;5044619;28;21057;-63
2021/11/20 00:09:30;;;;;;;26.73;16.60;;;;;;;;;;5036923;28;20498;-65
2021/11/20 00:11:58;;;;;;;26.20;16.50;;;;;;;;;;5034765;28;20415;-67
2021/11/20 00:14:24;;;;;;;34.70;17.10;;;;;;;;;;5034135;28;20461;-64
2021/11/20 00:16:51;;;;;;;33.70;16.87;;;;;;;;;;5034122;28;20418;-63
2021/11/20 00:19:19;;;;;;;29.00;16.30;;;;;;;;;;5034671;28;20487;-64
2021/11/20 00:21:49;;;;;;;26.00;14.70;;;;;;;;;;5039409;28;20418;-64
2021/11/20 00:24:27;;;;;;;24.27;16.10;;;;;;;;;;5039699;28;20492;-63
2021/11/20 00:26:55;;;;;;;37.87;16.27;;;;;;;;;;5049184;28;20422;-62
2021/11/20 00:29:26;;;;;;;26.73;15.80;;;;;;;;;;5035035;28;20445;-64
2021/11/20 00:31:54;;;;;;;21.40;15.40;;;;;;;;;;5033622;28;20391;-63
2021/11/20 00:34:22;;;;;;;32.50;15.80;;;;;;;;;;5050861;28;20453;-62
2021/11/20 00:36:49;;;;;;;31.20;16.17;;;;;;;;;;5054202;28;20430;-62
2021/11/20 00:39:16;;;;;;;25.10;16.40;;;;;;;;;;5041345;28;20427;-64
2021/11/20 00:41:43;;;;;;;28.20;16.63;;;;;;;;;;5052953;28;20552;-61
2021/11/20 00:44:09;;;;;;;25.13;16.13;;;;;;;;;;5053409;28;20402;-62
2021/11/20 00:46:35;;;;;;;29.43;15.63;;;;;;;;;;5052991;28;20421;-63
2021/11/20 00:49:02;;;;;;;30.97;17.50;;;;;;;;;;5043837;28;20472;-62
2021/11/20 00:51:28;;;;;;;25.13;15.73;;;;;;;;;;5043012;28;20406;-63
2021/11/20 00:53:55;;;;;;;35.83;18.90;;;;;;;;;;5052080;28;20458;-63
2021/11/20 00:56:22;;;;;;;35.17;20.70;;;;;;;;;;5039336;28;20955;-63
2021/11/20 00:58:48;;;;;;;36.97;20.90;;;;;;;;;;5035611;28;20418;-63
2021/11/20 01:01:19;;;;;;;36.97;19.23;;;;;;;;;;5033090;28;20457;-63
2021/11/20 01:03:45;;;;;;;27.73;17.03;;;;;;;;;;5045404;28;20414;-62
2021/11/20 01:06:11;;;;;;;29.00;16.80;;;;;;;;;;5052945;28;20417;-63
2021/11/20 01:08:39;;;;;;;28.03;15.67;;;;;;;;;;5051545;28;20421;-63
2021/11/20 01:11:08;;;;;;;23.63;14.50;;;;;;;;;;5048341;28;20754;-65
2021/11/20 01:13:34;;;;;;;26.20;16.10;;;;;;;;;;5047583;28;20457;-63
2021/11/20 01:16:02;;;;;;;24.83;14.53;;;;;;;;;;5053120;28;20485;-65
2021/11/20 01:18:29;;;;;;;24.77;15.17;;;;;;;;;;5034030;28;20417;-63
2021/11/20 01:20:55;;;;;;;24.33;14.60;;;;;;;;;;5033549;28;20414;-65
2021/11/20 01:23:23;;;;;;;31.00;16.67;;;;;;;;;;5041446;28;20419;-63
2021/11/20 01:25:49;;;;;;;27.93;15.73;;;;;;;;;;5032900;28;20923;-65
2021/11/20 01:28:16;;;;;;;33.40;21.37;;;;;;;;;;5034308;28;20462;-63
2021/11/20 01:30:42;;;;;;;26.90;15.77;;;;;;;;;;5045286;28;20851;-63
2021/11/20 01:33:08;;;;;;;26.30;15.47;;;;;;;;;;5038918;28;20764;-63
2021/11/20 01:35:34;;;;;;;26.07;14.90;;;;;;;;;;5034917;28;20443;-63
2021/11/20 01:38:01;;;;;;;31.60;19.00;;;;;;;;;;5034027;28;20438;-63
2021/11/20 01:40:29;;;;;;;31.77;18.07;;;;;;;;;;5035606;28;20413;-63
2021/11/20 01:42:55;;;;;;;26.60;16.33;;;;;;;;;;5045210;28;20414;-62
2021/11/20 01:45:22;;;;;;;22.63;14.77;;;;;;;;;;5054183;28;20441;-62
2021/11/20 01:47:55;;;;;;;27.20;16.03;;;;;;;;;;5047524;28;20488;-62
2021/11/20 01:50:50;;;;;;;38.53;21.97;;;;;;;;;;5038762;28;20498;-62
2021/11/20 01:53:19;;;;;;;42.43;22.40;;;;;;;;;;5039116;28;20953;-62
2021/11/20 01:55:45;;;;;;;27.50;15.73;;;;;;;;;;5051811;28;20537;-62
2021/11/20 01:58:46;;;;;;;22.80;15.83;;;;;;;;;;5051520;28;20505;-62
2021/11/20 02:01:19;;;;;;;31.27;17.20;;;;;;;;;;4991428;28;20412;-62
2021/11/20 02:03:49;;;;;;;31.03;15.67;;;;;;;;;;5031961;28;20434;-62
2021/11/20 02:06:21;;;;;;;26.77;15.57;;;;;;;;;;5041338;28;21014;-62
2021/11/20 02:08:50;;;;;;;29.40;16.60;;;;;;;;;;5035274;28;20457;-62
2021/11/20 02:11:25;;;;;;;39.20;20.53;;;;;;;;;;5055927;28;20948;-62
2021/11/20 02:13:52;;;;;;;35.23;18.47;;;;;;;;;;5046177;28;20808;-62
2021/11/20 02:16:21;;;;;;;28.10;15.37;;;;;;;;;;5036881;28;20541;-62
2021/11/20 02:18:49;;;;;;;22.10;14.13;;;;;;;;;;5036673;28;20414;-62
2021/11/20 02:21:20;;;;;;;21.40;12.63;;;;;;;;;;5051071;28;20525;-62
2021/11/20 02:23:45;;;;;;;29.33;14.77;;;;;;;;;;5054991;28;20414;-62
2021/11/20 02:26:11;;;;;;;22.87;14.00;;;;;;;;;;5055160;28;20496;-62
2021/11/20 02:28:39;;;;;;;20.67;13.40;;;;;;;;;;5054927;28;20412;-62
2021/11/20 02:31:05;;;;;;;22.47;12.30;;;;;;;;;;5055764;28;20475;-62
2021/11/20 02:33:34;;;;;;;25.37;14.03;;;;;;;;;;5054171;28;20966;-63
2021/11/20 02:36:02;;;;;;;19.90;11.40;;;;;;;;;;5036461;28;20427;-65
2021/11/20 02:38:29;;;;;;;29.13;14.67;;;;;;;;;;5035606;28;20441;-65
2021/11/20 02:40:57;;;;;;;19.90;12.97;;;;;;;;;;5041198;28;20504;-62
2021/11/20 02:43:24;;;;;;;24.20;13.40;;;;;;;;;;5055499;28;20398;-62
2021/11/20 02:45:52;;;;;;;25.27;13.60;;;;;;;;;;5038853;28;20830;-62
2021/11/20 02:48:18;;;;;;;26.13;13.97;;;;;;;;;;5035414;28;20427;-62
2021/11/20 02:50:47;;;;;;;21.13;12.60;;;;;;;;;;5036675;28;20442;-64
2021/11/20 02:53:16;;;;;;;24.70;12.90;;;;;;;;;;5050237;28;20462;-63
2021/11/20 02:55:46;;;;;;;35.17;13.90;;;;;;;;;;5054127;28;20513;-62
2021/11/20 02:58:13;;;;;;;41.20;16.40;;;;;;;;;;5055184;28;20421;-63
2021/11/20 03:00:39;;;;;;;33.93;14.77;;;;;;;;;;5054881;28;20414;-63
2021/11/20 03:03:05;;;;;;;31.37;14.90;;;;;;;;;;5055158;28;20433;-63
2021/11/20 03:05:31;;;;;;;39.23;17.83;;;;;;;;;;5044895;28;20419;-63
2021/11/20 03:07:57;;;;;;;32.83;18.40;;;;;;;;;;5035357;28;20419;-62
2021/11/20 03:10:23;;;;;;;31.30;17.27;;;;;;;;;;5039756;28;20461;-63
2021/11/20 03:12:50;;;;;;;24.27;13.57;;;;;;;;;;5035134;28;20885;-63
2021/11/20 03:15:16;;;;;;;25.60;12.77;;;;;;;;;;5039798;28;20458;-63
2021/11/20 03:17:43;;;;;;;20.20;12.43;;;;;;;;;;5053588;28;20445;-63
2021/11/20 03:20:10;;;;;;;21.53;12.10;;;;;;;;;;5054310;28;20421;-63
2021/11/20 03:22:48;;;;;;;22.03;12.63;;;;;;;;;;5054496;28;20981;-63
2021/11/20 03:25:14;;;;;;;24.37;14.20;;;;;;;;;;5038092;28;20410;-63
2021/11/20 03:27:40;;;;;;;34.27;18.30;;;;;;;;;;5054374;28;20513;-63
2021/11/20 03:30:07;;;;;;;38.00;18.30;;;;;;;;;;5053669;28;20425;-62
2021/11/20 03:32:33;;;;;;;32.70;18.07;;;;;;;;;;5053339;28;20406;-62
2021/11/20 03:34:59;;;;;;;29.57;14.90;;;;;;;;;;5041340;28;20462;-62
2021/11/20 03:37:25;;;;;;;28.10;14.83;;;;;;;;;;5052498;28;20842;-62
2021/11/20 03:39:52;;;;;;;23.93;11.97;;;;;;;;;;5052659;28;20430;-64
2021/11/20 03:42:19;;;;;;;22.23;13.23;;;;;;;;;;5053836;28;20412;-64
2021/11/20 03:44:45;;;;;;;25.10;13.90;;;;;;;;;;5052511;28;20410;-63
2021/11/20 03:47:11;;;;;;;28.20;15.20;;;;;;;;;;5042329;28;20454;-63
2021/11/20 03:49:38;;;;;;;42.37;21.00;;;;;;;;;;5036733;28;20446;-63
2021/11/20 03:52:04;;;;;;;27.93;14.97;;;;;;;;;;5044999;28;20449;-62
2021/11/20 03:54:30;;;;;;;35.87;18.47;;;;;;;;;;5036731;28;20490;-62
2021/11/20 03:56:57;;;;;;;23.60;14.00;;;;;;;;;;5040519;28;20752;-61
2021/11/20 03:59:24;;;;;;;19.27;12.10;;;;;;;;;;5053964;28;20405;-63
2021/11/20 04:01:50;;;;;;;17.10;10.73;;;;;;;;;;5053634;28;20442;-63
2021/11/20 04:04:16;;;;;;;20.93;11.20;;;;;;;;;;5052455;28;20413;-63
2021/11/20 04:06:42;;;;;;;14.80;9.60;;;;;;;;;;5052989;28;20464;-62
2021/11/20 04:09:12;;;;;;;17.50;10.57;;;;;;;;;;5053774;28;20437;-63
2021/11/20 04:11:39;;;;;;;17.33;10.07;;;;;;;;;;5053367;28;20432;-63
2021/11/20 04:14:05;;;;;;;13.97;9.80;;;;;;;;;;5052157;28;20496;-63
2021/11/20 04:16:32;;;;;;;15.63;9.17;;;;;;;;;;5047166;28;20982;-64
2021/11/20 04:18:59;;;;;;;14.40;9.53;;;;;;;;;;5034415;28;20498;-63
2021/11/20 04:21:25;;;;;;;14.47;9.73;;;;;;;;;;5038181;28;20402;-66
2021/11/20 04:23:52;;;;;;;13.10;8.67;;;;;;;;;;5047457;28;20464;-63
2021/11/20 04:26:20;;;;;;;13.37;9.53;;;;;;;;;;5053443;28;20529;-63
2021/11/20 04:28:46;;;;;;;12.20;9.30;;;;;;;;;;5052105;28;20452;-62
2021/11/20 04:31:13;;;;;;;12.10;8.93;;;;;;;;;;5053125;28;20505;-64
2021/11/20 04:33:39;;;;;;;10.87;7.50;;;;;;;;;;5051304;28;20874;-62
2021/11/20 04:36:06;;;;;;;9.93;7.40;;;;;;;;;;5053511;28;20902;-62
2021/11/20 04:38:32;;;;;;;12.90;8.90;;;;;;;;;;5045024;28;20900;-62
2021/11/20 04:40:58;;;;;;;10.03;7.50;;;;;;;;;;5033242;28;20403;-62
2021/11/20 04:43:25;;;;;;;10.20;7.00;;;;;;;;;;5039226;28;20476;-64
2021/11/20 04:45:52;;;;;;;16.63;8.37;;;;;;;;;;5033380;28;20407;-62
2021/11/20 04:48:18;;;;;;;11.77;7.40;;;;;;;;;;5040913;28;20425;-61
2021/11/20 04:50:45;;;;;;;13.43;8.40;;;;;;;;;;5053021;28;20441;-62
2021/11/20 04:53:11;;;;;;;13.57;7.80;;;;;;;;;;5043082;28;20429;-61
2021/11/20 04:55:37;;;;;;;9.60;8.10;;;;;;;;;;5033112;28;20768;-61
2021/11/20 04:58:03;;;;;;;10.73;7.17;;;;;;;;;;5033370;28;20834;-61
2021/11/20 05:00:34;;;;;;;11.27;6.80;;;;;;;;;;5050924;28;20421;-63
2021/11/20 05:03:05;;;;;;;10.10;7.63;;;;;;;;;;5042957;28;20447;-62
2021/11/20 05:05:31;;;;;;;8.27;6.80;;;;;;;;;;5032939;28;20505;-61
2021/11/20 05:07:57;;;;;;;9.30;6.77;;;;;;;;;;5032658;28;20430;-61
2021/11/20 05:10:23;;;;;;;10.50;7.37;;;;;;;;;;5046734;28;20410;-61
2021/11/20 05:12:49;;;;;;;11.43;8.40;;;;;;;;;;5042127;28;20421;-60
2021/11/20 05:15:16;;;;;;;15.00;10.30;;;;;;;;;;5052989;28;20438;-61
2021/11/20 05:17:42;;;;;;;27.13;17.13;;;;;;;;;;5052395;28;20429;-62
2021/11/20 05:20:08;;;;;;;25.77;17.50;;;;;;;;;;5042111;28;20410;-62
2021/11/20 05:22:35;;;;;;;29.17;18.47;;;;;;;;;;5037721;28;20820;-62
2021/11/20 05:25:01;;;;;;;17.37;11.30;;;;;;;;;;5053085;28;20398;-61
2021/11/20 05:27:27;;;;;;;18.53;12.93;;;;;;;;;;5052587;28;20429;-62
2021/11/20 05:30:08;;;;;;;13.73;9.73;;;;;;;;;;5046802;28;20498;-61
2021/11/20 05:32:34;;;;;;;12.17;8.10;;;;;;;;;;5034448;28;20406;-62
2021/11/20 05:35:00;;;;;;;10.60;8.40;;;;;;;;;;5052557;28;20945;-61
2021/11/20 05:37:26;;;;;;;10.07;8.20;;;;;;;;;;5051875;28;20476;-60
2021/11/20 05:39:53;;;;;;;8.33;7.30;;;;;;;;;;5050952;28;20402;-61
2021/11/20 05:42:19;;;;;;;10.03;8.13;;;;;;;;;;5037560;28;20408;-63
2021/11/20 05:44:45;;;;;;;9.13;6.83;;;;;;;;;;5053146;28;20418;-62
2021/11/20 05:47:11;;;;;;;7.80;6.60;;;;;;;;;;5049000;28;20438;-62
2021/11/20 05:49:40;;;;;;;9.50;7.20;;;;;;;;;;5057005;28;20444;-62
2021/11/20 05:52:07;;;;;;;8.50;7.20;;;;;;;;;;5055534;28;20444;-62
2021/11/20 05:54:33;;;;;;;10.67;7.03;;;;;;;;;;5056317;28;20453;-62
2021/11/20 05:56:59;;;;;;;8.97;6.43;;;;;;;;;;5047205;28;20766;-62
2021/11/20 05:59:25;;;;;;;7.77;6.10;;;;;;;;;;5037176;28;20463;-62
2021/11/20 06:01:52;;;;;;;9.60;7.10;;;;;;;;;;5038218;28;20422;-62
2021/11/20 06:04:18;;;;;;;9.77;6.10;;;;;;;;;;5050562;28;20492;-62
2021/11/20 06:06:44;;;;;;;9.13;6.93;;;;;;;;;;5045819;28;20465;-62
2021/11/20 06:09:11;;;;;;;8.10;6.70;;;;;;;;;;5050283;28;20414;-61
2021/11/20 06:11:37;;;;;;;10.10;7.27;;;;;;;;;;5054866;28;20761;-60
2021/11/20 06:14:04;;;;;;;8.90;7.13;;;;;;;;;;5056940;28;20529;-60
2021/11/20 06:16:31;;;;;;;10.60;7.00;;;;;;;;;;5055032;28;20437;-61
2021/11/20 06:18:57;;;;;;;9.27;6.97;;;;;;;;;;5055706;28;20409;-60
2021/11/20 06:21:23;;;;;;;9.50;6.90;;;;;;;;;;5040613;28;20418;-60
2021/11/20 06:23:49;;;;;;;12.43;8.40;;;;;;;;;;5047383;28;20403;-60
2021/11/20 06:26:16;;;;;;;12.70;8.03;;;;;;;;;;5049895;28;20411;-61
2021/11/20 06:28:42;;;;;;;9.30;6.87;;;;;;;;;;5039475;28;20494;-64
2021/11/20 06:31:08;;;;;;;9.50;6.73;;;;;;;;;;5050106;28;20893;-62
2021/11/20 06:33:34;;;;;;;9.53;6.73;;;;;;;;;;5054472;28;20457;-63
2021/11/20 06:36:01;;;;;;;8.87;7.03;;;;;;;;;;5054678;28;20451;-64
2021/11/20 06:38:28;;;;;;;10.60;6.40;;;;;;;;;;5055732;28;20766;-63
2021/11/20 06:40:57;;;;;;;12.00;7.50;;;;;;;;;;5049280;28;20916;-62
2021/11/20 06:43:26;;;;;;;8.57;6.00;;;;;;;;;;5035946;28;20419;-63
2021/11/20 06:45:53;;;;;;;11.27;8.60;;;;;;;;;;5037141;28;20407;-63
2021/11/20 06:48:20;;;;;;;8.80;6.83;;;;;;;;;;5036839;28;20454;-63
2021/11/20 06:50:46;;;;;;;9.50;6.40;;;;;;;;;;5039118;28;20473;-63
2021/11/20 06:53:14;;;;;;;10.57;7.53;;;;;;;;;;5043527;28;20506;-63
2021/11/20 06:55:41;;;;;;;9.67;7.50;;;;;;;;;;5037502;28;20442;-63
2021/11/20 07:00:44;;;;;;;11.10;7.07;;;;;;;;;;5037659;28;20387;-63
2021/11/20 07:03:12;;;;;;;12.63;9.13;;;;;;;;;;5055354;28;20418;-63
2021/11/20 07:05:41;;;;;;;10.47;7.67;;;;;;;;;;5038366;28;20486;-63
2021/11/20 07:08:08;;;;;;;7.90;6.07;;;;;;;;;;5037019;28;20442;-63
2021/11/20 07:10:35;;;;;;;13.20;7.17;;;;;;;;;;5047517;28;20449;-63
2021/11/20 07:13:01;;;;;;;9.40;7.40;;;;;;;;;;5053795;28;20876;-60
2021/11/20 07:15:28;;;;;;;10.03;7.00;;;;;;;;;;5054623;28;20437;-64
2021/11/20 07:17:54;;;;;;;9.20;6.33;;;;;;;;;;5055572;28;20426;-65
2021/11/20 07:20:22;;;;;;;10.87;6.67;;;;;;;;;;5055028;28;20478;-63
2021/11/20 07:22:49;;;;;;;9.77;7.67;;;;;;;;;;5053160;28;20433;-63
2021/11/20 07:25:15;;;;;;;13.10;7.33;;;;;;;;;;5048556;28;20418;-63
2021/11/20 07:27:41;;;;;;;7.90;5.60;;;;;;;;;;5057440;28;20937;-64
2021/11/20 07:30:08;;;;;;;11.27;5.97;;;;;;;;;;5057512;28;20409;-64
2021/11/20 07:32:34;;;;;;;6.63;5.33;;;;;;;;;;5054861;28;20453;-63
2021/11/20 07:35:00;;;;;;;8.03;5.73;;;;;;;;;;5052119;28;20464;-61
2021/11/20 07:37:27;;;;;;;10.97;7.17;;;;;;;;;;5055926;28;20430;-64
2021/11/20 07:39:53;;;;;;;10.23;6.20;;;;;;;;;;5056532;28;20754;-63
2021/11/20 07:42:19;;;;;;;9.73;6.70;;;;;;;;;;5055203;28;20433;-62
2021/11/20 07:44:45;;;;;;;10.43;7.10;;;;;;;;;;5042065;28;20420;-62
2021/11/20 07:47:11;;;;;;;7.47;5.53;;;;;;;;;;5054242;28;20446;-65
2021/11/20 07:49:39;;;;;;;9.93;6.57;;;;;;;;;;5055232;28;20985;-62
2021/11/20 07:52:06;;;;;;;7.80;6.13;;;;;;;;;;5054828;28;20776;-65
2021/11/20 07:54:32;;;;;;;10.87;6.30;;;;;;;;;;5053119;28;20480;-68
2021/11/20 07:56:58;;;;;;;9.67;6.60;;;;;;;;;;5048752;28;20430;-64
2021/11/20 07:59:24;;;;;;;8.10;6.33;;;;;;;;;;5051829;28;20421;-65
2021/11/20 08:01:50;;;;;;;8.83;6.57;;;;;;;;;;5051954;28;20425;-61
2021/11/20 08:04:16;;;;;;;9.43;6.37;;;;;;;;;;5051732;28;20494;-68
2021/11/20 08:06:43;;;;;;;7.37;6.57;;;;;;;;;;5052959;28;20567;-61
2021/11/20 08:09:10;;;;;;;9.07;6.77;;;;;;;;;;5053631;28;20425;-66
2021/11/20 08:11:38;;;;;;;12.00;6.57;;;;;;;;;;5051350;28;20766;-62
2021/11/20 08:14:04;;;;;;;11.47;6.37;;;;;;;;;;5057403;28;21091;-63
2021/11/20 08:16:30;;;;;;;7.50;5.70;;;;;;;;;;5059473;28;20471;-63
2021/11/20 08:18:57;;;;;;;9.20;6.77;;;;;;;;;;5059789;28;20448;-62
2021/11/20 08:21:23;;;;;;;6.70;5.60;;;;;;;;;;5051670;28;20524;-62
2021/11/20 08:23:52;;;;;;;6.97;5.80;;;;;;;;;;5054702;28;20444;-64
2021/11/20 08:29:10;;;;;;;10.40;6.13;;;;;;;;;;5058319;28;20460;-62
2021/11/20 08:31:39;;;;;;;8.20;6.57;;;;;;;;;;5055304;28;20437;-63
2021/11/20 08:34:05;;;;;;;9.73;6.83;;;;;;;;;;5053716;28;20453;-61
2021/11/20 08:36:31;;;;;;;8.50;6.27;;;;;;;;;;5057039;28;20425;-63
2021/11/20 08:38:57;;;;;;;11.17;6.40;;;;;;;;;;5056261;28;20437;-62
2021/11/20 08:41:23;;;;;;;11.17;6.10;;;;;;;;;;5052228;28;20419;-64
2021/11/20 08:43:50;;;;;;;10.20;6.77;;;;;;;;;;5049797;28;20436;-62
2021/11/20 08:46:16;;;;;;;8.80;6.20;;;;;;;;;;5042338;28;20444;-63
2021/11/20 08:48:42;;;;;;;8.13;6.30;;;;;;;;;;5039297;28;20410;-63
2021/11/20 08:51:11;;;;;;;9.60;6.40;;;;;;;;;;5050451;28;20818;-63
2021/11/20 08:53:37;;;;;;;11.00;6.80;;;;;;;;;;5051847;28;20450;-64
2021/11/20 08:56:04;;;;;;;8.80;6.70;;;;;;;;;;5039100;28;20398;-63
2021/11/20 08:58:31;;;;;;;8.80;6.50;;;;;;;;;;5039457;28;20406;-64
2021/11/20 09:01:02;;;;;;;9.47;5.80;;;;;;;;;;5045121;28;20414;-63
2021/11/20 09:03:32;;;;;;;9.10;6.50;;;;;;;;;;5058206;28;20418;-63
2021/11/20 09:06:12;;;;;;;11.80;6.43;;;;;;;;;;5057456;28;20546;-65
2021/11/20 09:08:45;;;;;;;8.10;5.87;;;;;;;;;;5058997;28;20412;-65
2021/11/20 09:11:34;;;;;;;8.30;6.10;;;;;;;;;;5056270;28;20428;-64
2021/11/20 09:14:03;;;;;;;7.47;6.30;;;;;;;;;;5047696;28;20788;-64
2021/11/20 09:16:29;;;;;;;9.23;5.50;;;;;;;;;;5059027;28;20433;-64
2021/11/20 09:18:57;;;;;;;7.50;6.10;;;;;;;;;;5057370;28;20508;-64
2021/11/20 09:21:23;;;;;;;5.93;5.03;;;;;;;;;;5045290;28;20473;-64
2021/11/20 09:23:49;;;;;;;7.10;6.00;;;;;;;;;;5038833;28;20493;-63
2021/11/20 09:26:16;;;;;;;8.50;5.63;;;;;;;;;;5058437;28;20409;-64
2021/11/20 09:28:42;;;;;;;8.60;6.20;;;;;;;;;;5058873;28;20406;-64
2021/11/20 09:31:10;;;;;;;6.23;5.37;;;;;;;;;;5056276;28;20417;-63
2021/11/20 09:33:37;;;;;;;7.90;5.80;;;;;;;;;;5058418;28;20487;-64
2021/11/20 09:36:03;;;;;;;8.50;6.63;;;;;;;;;;5038473;28;20485;-64
2021/11/20 09:38:30;;;;;;;9.03;6.70;;;;;;;;;;5036587;28;20770;-64
2021/11/20 09:41:19;;;;;;;9.43;7.50;;;;;;;;;;5039291;28;20751;-63
2021/11/20 09:43:59;;;;;;;8.60;6.40;;;;;;;;;;5047501;28;20445;-64
2021/11/20 09:46:30;;;;;;;11.13;7.67;;;;;;;;;;5056516;28;20473;-64
2021/11/20 09:48:59;;;;;;;9.30;7.40;;;;;;;;;;5057122;28;20479;-64
2021/11/20 09:51:31;;;;;;;7.27;6.10;;;;;;;;;;5050334;28;20418;-64
2021/11/20 09:53:58;;;;;;;7.67;6.40;;;;;;;;;;5058512;28;20938;-64
2021/11/20 09:56:28;;;;;;;8.80;6.30;;;;;;;;;;5058178;28;20437;-64
2021/11/20 09:59:03;;;;;;;8.20;6.17;;;;;;;;;;5057046;28;20477;-64
2021/11/20 10:01:33;;;;;;;8.40;6.20;;;;;;;;;;5057126;28;20417;-64
2021/11/20 10:04:02;;;;;;;7.33;5.17;;;;;;;;;;5057922;28;20397;-64
2021/11/20 10:06:30;;;;;;;6.20;4.20;;;;;;;;;;5047786;28;20481;-64
2021/11/20 10:09:14;;;;;;;4.80;4.00;;;;;;;;;;5039530;28;20419;-64
2021/11/20 10:11:40;;;;;;;4.50;4.10;;;;;;;;;;5038789;28;20402;-64
2021/11/20 10:14:11;;;;;;;5.63;3.73;;;;;;;;;;5057625;28;20484;-64
2021/11/20 10:16:54;;;;;;;3.90;2.80;;;;;;;;;;5049042;28;20437;-64
2021/11/20 10:19:25;;;;;;;3.43;2.73;;;;;;;;;;5057140;28;20401;-64
2021/11/20 10:22:00;;;;;;;4.10;3.17;;;;;;;;;;5058126;28;20808;-64
2021/11/20 10:24:35;;;;;;;5.27;3.10;;;;;;;;;;5058061;28;20417;-65
2021/11/20 10:27:10;;;;;;;3.30;2.47;;;;;;;;;;5050841;28;21016;-64
2021/11/20 10:30:00;;;;;;;3.70;2.70;;;;;;;;;;5040664;28;20418;-64
2021/11/20 10:32:41;;;;;;;3.17;2.43;;;;;;;;;;5049831;28;20401;-64
2021/11/20 10:35:26;;;;;;;7.50;5.07;;;;;;;;;;5061808;28;20449;-64
2021/11/20 10:38:03;;;;;;;3.90;3.13;;;;;;;;;;5049574;28;20500;-64
2021/11/20 10:40:29;;;;;;;5.20;3.53;;;;;;;;;;5041405;28;20458;-64
2021/11/20 10:43:01;;;;;;;3.83;3.30;;;;;;;;;;5051989;28;20607;-64
2021/11/20 10:45:32;;;;;;;3.40;2.80;;;;;;;;;;5061147;28;20413;-63
2021/11/20 10:48:07;;;;;;;4.93;2.80;;;;;;;;;;5059814;28;20977;-64
2021/11/20 10:50:36;;;;;;;3.10;2.33;;;;;;;;;;5061902;28;20381;-64
2021/11/20 10:53:20;;;;;;;3.87;2.83;;;;;;;;;;5056486;28;20903;-64
2021/11/20 10:56:06;;;;;;;4.20;2.97;;;;;;;;;;5041341;28;20815;-64
2021/11/20 10:58:38;;;;;;;3.37;2.40;;;;;;;;;;5052952;28;20425;-64
2021/11/20 11:01:11;;;;;;;3.67;2.37;;;;;;;;;;5061249;28;20459;-64
2021/11/20 11:03:38;;;;;;;3.20;2.63;;;;;;;;;;5060398;28;20413;-64
2021/11/20 11:06:24;;;;;;;5.80;2.57;;;;;;;;;;5060836;28;20505;-65
2021/11/20 11:09:17;;;;;;;3.83;2.80;;;;;;;;;;5059444;28;20938;-64
2021/11/20 11:11:50;;;;;;;3.43;2.70;;;;;;;;;;5059104;28;20785;-64
2021/11/20 11:14:16;;;;;;;3.17;2.40;;;;;;;;;;5060242;28;20968;-65
2021/11/20 11:16:42;;;;;;;3.67;2.53;;;;;;;;;;5060879;28;20541;-64
2021/11/20 11:19:33;;;;;;;4.37;3.03;;;;;;;;;;5056021;28;20492;-63
2021/11/20 11:21:59;;;;;;;3.60;3.20;;;;;;;;;;5060857;28;20426;-63
2021/11/20 11:24:33;;;;;;;3.63;2.60;;;;;;;;;;5060328;28;20771;-63
2021/11/20 11:27:04;;;;;;;5.60;3.43;;;;;;;;;;5058883;28;20429;-63
2021/11/20 11:29:36;;;;;;;3.00;2.43;;;;;;;;;;5052416;28;20406;-63
2021/11/20 11:32:04;;;;;;;6.93;3.07;;;;;;;;;;5058815;28;20409;-63
2021/11/20 11:34:36;;;;;;;4.57;2.90;;;;;;;;;;5060412;28;20457;-63
2021/11/20 11:37:09;;;;;;;4.77;2.80;;;;;;;;;;5058419;28;20430;-63
2021/11/20 11:39:50;;;;;;;4.00;2.77;;;;;;;;;;5049757;28;20406;-63
2021/11/20 11:42:16;;;;;;;5.93;3.47;;;;;;;;;;5057199;28;20405;-63
2021/11/20 11:44:54;;;;;;;4.47;3.33;;;;;;;;;;5058177;28;20421;-63
2021/11/20 11:47:29;;;;;;;3.87;3.07;;;;;;;;;;5054526;28;20453;-63
2021/11/20 11:50:14;;;;;;;4.40;3.33;;;;;;;;;;5040957;28;20471;-63
2021/11/20 11:52:49;;;;;;;5.70;3.20;;;;;;;;;;5041132;28;20981;-64
2021/11/20 11:55:15;;;;;;;4.03;3.63;;;;;;;;;;5057994;28;20448;-64
2021/11/20 11:57:56;;;;;;;4.47;3.40;;;;;;;;;;5056470;28;20778;-64
2021/11/20 12:00:37;;;;;;;5.00;3.40;;;;;;;;;;5052399;28;20406;-64
2021/11/20 12:03:05;;;;;;;6.43;3.13;;;;;;;;;;5056069;28;20420;-64
2021/11/20 12:05:31;;;;;;;4.57;3.43;;;;;;;;;;5056849;28;20760;-63
2021/11/20 12:08:13;;;;;;;3.67;3.00;;;;;;;;;;5044317;28;20765;-64
2021/11/20 12:10:51;;;;;;;5.43;3.37;;;;;;;;;;5036345;28;20489;-63
2021/11/20 12:13:49;;;;;;;4.30;2.90;;;;;;;;;;5052504;28;20436;-62
2021/11/20 12:16:22;;;;;;;5.10;3.30;;;;;;;;;;5014850;28;20512;-62
2021/11/20 12:19:07;;;;;;;5.67;3.90;;;;;;;;;;5038831;28;20439;-63
2021/11/20 12:21:58;;;;;;;5.30;3.10;;;;;;;;;;5039276;28;20959;-63
2021/11/20 12:24:43;;;;;;;3.97;2.80;;;;;;;;;;5039429;28;20394;-63
2021/11/20 12:27:24;;;;;;;5.23;4.53;;;;;;;;;;5039620;28;20931;-64
2021/11/20 12:29:58;;;;;;;5.37;4.20;;;;;;;;;;5038052;28;20413;-64
2021/11/20 12:32:30;;;;;;;5.20;4.00;;;;;;;;;;5042357;28;20422;-64
2021/11/20 12:35:02;;;;;;;8.37;4.50;;;;;;;;;;5058267;28;20441;-64
2021/11/20 12:37:48;;;;;;;4.40;3.50;;;;;;;;;;5046077;28;20431;-64
2021/11/20 12:40:14;;;;;;;6.87;4.47;;;;;;;;;;5039150;28;20428;-64
2021/11/20 12:42:40;;;;;;;5.47;4.10;;;;;;;;;;5056149;28;20492;-64
2021/11/20 12:45:39;;;;;;;5.77;4.33;;;;;;;;;;5055559;28;20821;-64
2021/11/20 12:48:05;;;;;;;8.80;4.17;;;;;;;;;;5017602;28;20435;-65
2021/11/20 12:50:31;;;;;;;6.70;4.07;;;;;;;;;;5038909;28;20537;-64
2021/11/20 12:53:03;;;;;;;5.70;4.30;;;;;;;;;;5056878;28;20789;-64
2021/11/20 12:55:32;;;;;;;5.70;4.10;;;;;;;;;;5058363;28;20449;-65
2021/11/20 12:58:27;;;;;;;4.67;3.80;;;;;;;;;;5037544;28;20433;-64
2021/11/20 13:00:55;;;;;;;6.63;4.90;;;;;;;;;;5025594;28;20819;-64
2021/11/20 13:03:29;;;;;;;6.70;4.97;;;;;;;;;;5056506;28;20422;-64
2021/11/20 13:05:57;;;;;;;6.57;4.83;;;;;;;;;;5055056;28;20430;-64
2021/11/20 13:08:23;;;;;;;6.23;4.93;;;;;;;;;;5038574;28;20415;-65
2021/11/20 13:10:49;;;;;;;7.10;5.40;;;;;;;;;;5038979;28;20408;-64
2021/11/20 13:13:19;;;;;;;9.80;5.50;;;;;;;;;;5054601;28;20902;-63
2021/11/20 13:16:03;;;;;;;6.60;5.37;;;;;;;;;;5054986;28;20751;-63
2021/11/20 13:18:32;;;;;;;7.70;5.13;;;;;;;;;;5038517;28;20476;-63
2021/11/20 13:21:07;;;;;;;7.23;5.90;;;;;;;;;;5039063;28;20402;-64
2021/11/20 13:23:35;;;;;;;6.33;5.73;;;;;;;;;;5053249;28;20417;-64
2021/11/20 13:26:02;;;;;;;7.60;6.40;;;;;;;;;;5050565;28;20922;-63
2021/11/20 13:28:33;;;;;;;8.57;5.87;;;;;;;;;;5037311;28;20399;-64
2021/11/20 13:30:59;;;;;;;7.77;6.10;;;;;;;;;;5039179;28;20414;-63
2021/11/20 13:33:26;;;;;;;7.07;5.30;;;;;;;;;;5048981;28;20414;-63
2021/11/20 13:35:56;;;;;;;7.10;6.13;;;;;;;;;;5050690;28;20451;-63
2021/11/20 13:38:22;;;;;;;6.63;5.40;;;;;;;;;;5038796;28;20506;-65
2021/11/20 13:40:50;;;;;;;6.53;5.20;;;;;;;;;;5038717;28;20438;-63
2021/11/20 13:43:17;;;;;;;6.63;5.90;;;;;;;;;;5041941;28;20557;-64
2021/11/20 13:45:44;;;;;;;8.43;6.23;;;;;;;;;;5042763;28;20417;-64
2021/11/20 13:48:11;;;;;;;8.57;7.40;;;;;;;;;;5058345;28;20413;-64
2021/11/20 13:50:41;;;;;;;9.50;6.40;;;;;;;;;;5058663;28;20420;-63
2021/11/20 13:53:12;;;;;;;10.97;6.43;;;;;;;;;;5055781;28;20406;-64
2021/11/20 13:55:38;;;;;;;13.43;6.47;;;;;;;;;;5038987;28;20461;-64
2021/11/20 13:58:04;;;;;;;8.83;6.73;;;;;;;;;;5057934;28;20434;-64
2021/11/20 14:00:30;;;;;;;9.07;6.73;;;;;;;;;;5058255;28;20413;-64
2021/11/20 14:02:57;;;;;;;7.57;6.13;;;;;;;;;;5041910;28;20508;-64
2021/11/20 14:05:25;;;;;;;12.40;7.80;;;;;;;;;;5058707;28;20429;-65
2021/11/20 14:08:02;;;;;;;9.03;6.70;;;;;;;;;;5061430;28;20441;-63
2021/11/20 14:10:35;;;;;;;7.67;6.50;;;;;;;;;;5061209;28;20414;-63
2021/11/20 14:13:05;;;;;;;8.77;6.20;;;;;;;;;;5062274;28;20432;-66
2021/11/20 14:15:43;;;;;;;10.70;6.53;;;;;;;;;;5046471;28;20958;-63
2021/11/20 14:18:09;;;;;;;8.57;5.60;;;;;;;;;;5061268;28;20423;-63
2021/11/20 14:20:43;;;;;;;8.70;6.30;;;;;;;;;;5060383;28;20914;-65
2021/11/20 14:23:11;;;;;;;8.13;6.20;;;;;;;;;;5059589;28;20845;-65
2021/11/20 14:25:37;;;;;;;7.70;6.83;;;;;;;;;;5059717;28;20413;-64
2021/11/20 14:28:04;;;;;;;7.20;5.73;;;;;;;;;;5046349;28;20470;-63
2021/11/20 14:30:37;;;;;;;7.10;5.87;;;;;;;;;;5040046;28;20437;-64
2021/11/20 14:33:04;;;;;;;7.70;5.73;;;;;;;;;;5043807;28;20481;-65
2021/11/20 14:35:30;;;;;;;8.80;6.00;;;;;;;;;;5056970;28;20488;-64
2021/11/20 14:38:00;;;;;;;8.37;5.97;;;;;;;;;;5058800;28;20437;-64
2021/11/20 14:40:26;;;;;;;6.70;5.70;;;;;;;;;;5059548;28;20769;-64
2021/11/20 14:42:52;;;;;;;8.60;5.80;;;;;;;;;;5060756;28;20844;-64
2021/11/20 14:45:21;;;;;;;9.10;6.60;;;;;;;;;;5042672;28;20422;-63
2021/11/20 14:47:51;;;;;;;8.87;6.40;;;;;;;;;;5051769;28;20499;-63
2021/11/20 14:50:17;;;;;;;5.50;4.90;;;;;;;;;;5050272;28;20497;-64
2021/11/20 14:52:44;;;;;;;8.20;6.07;;;;;;;;;;5041393;28;20410;-65